Main page
METAR-TAF:

METAR-TAF

Airports :

Warton Aerodrome

Preston, England

latitude: 53-44-42N, longitude: 2-53-02W, elevation: 17 m

Current weather observation

The report was made 8 hours and 57 minutes ago, at 13:50 UTC
Wind 7 kt from the North, varying between Northwest and North/Northeast
Temperature 16°C
Humidity 82%
Pressure 1002 hPa
Visibility 10 km or more
Few clouds at a height of 2300 ft
Broken clouds at a height of 3300 ft

METAR: EGNO 301350Z 35007KT 320V020 9999 FEW023 BKN033 16/13 Q1002

Time: 23:47 (22:47 UTC)

Forecast

The report was made 8 hours and 49 minutes ago, at 13:58 UTC
Forecast valid from 30 at 15 UTC to 30 at 18 UTC
Wind 8 kt from the North
Visibility 10 km or more
Few clouds at a height of 1000 ft
Scattered clouds at a height of 2000 ft
Probability 40% :
Temporary
from 30 at 15 UTC to 30 at 18 UTC
Visibility: 7000 m
Broken clouds at a height of 1000 ft
rain, rain showers

TAF: EGNO 301358Z 3015/3018 35008KT 9999 FEW010 SCT020 PROB40 TEMPO 3015/3018 7000 RA SHRA BKN010

Weather observations and forecasts of more than 4000 airports (METAR and TAF reports).

The available stations are represented by yellow and red dots on the map.

Hover mouse over dot to see the name of the station.

Then click to see weather observations and forecasts.

To change the map : click on the green buttons with a black cross to zoom in, on the green button with a dash to zoom out, or on the green arrows for adjacent maps.


METAR-TAF: